sensor_id;sensor_type;location;lat;lon;timestamp;P1;durP1;ratioP1;P2;durP2;ratioP2
10491;SDS011;5293;51.464;-2.566;2022-09-03T00:02:24;8.50;;;6.40;;
10491;SDS011;5293;51.464;-2.566;2022-09-03T00:05:18;8.30;;;7.13;;
10491;SDS011;5293;51.464;-2.566;2022-09-03T00:10:56;10.73;;;7.00;;
10491;SDS011;5293;51.464;-2.566;2022-09-03T00:13:35;8.77;;;6.87;;
10491;SDS011;5293;51.464;-2.566;2022-09-03T00:16:27;16.23;;;8.10;;
10491;SDS011;5293;51.464;-2.566;2022-09-03T00:19:06;11.93;;;7.37;;
10491;SDS011;5293;51.464;-2.566;2022-09-03T00:21:45;9.37;;;7.60;;
10491;SDS011;5293;51.464;-2.566;2022-09-03T00:24:15;9.03;;;7.20;;
10491;SDS011;5293;51.464;-2.566;2022-09-03T00:26:49;10.80;;;7.27;;
10491;SDS011;5293;51.464;-2.566;2022-09-03T00:29:34;10.23;;;7.50;;
10491;SDS011;5293;51.464;-2.566;2022-09-03T00:32:20;8.03;;;7.23;;
10491;SDS011;5293;51.464;-2.566;2022-09-03T00:34:53;8.47;;;7.50;;
10491;SDS011;5293;51.464;-2.566;2022-09-03T00:37:25;10.37;;;7.90;;
10491;SDS011;5293;51.464;-2.566;2022-09-03T00:39:53;12.33;;;7.93;;
10491;SDS011;5293;51.464;-2.566;2022-09-03T00:53:31;8.57;;;7.67;;
10491;SDS011;5293;51.464;-2.566;2022-09-03T01:05:00;9.47;;;8.07;;
10491;SDS011;5293;51.464;-2.566;2022-09-03T01:22:52;9.57;;;8.07;;
10491;SDS011;5293;51.464;-2.566;2022-09-03T01:31:11;9.07;;;7.90;;
10491;SDS011;5293;51.464;-2.566;2022-09-03T01:50:39;14.27;;;9.30;;
10491;SDS011;5293;51.464;-2.566;2022-09-03T01:53:09;10.17;;;8.90;;
10491;SDS011;5293;51.464;-2.566;2022-09-03T01:55:59;10.07;;;8.73;;
10491;SDS011;5293;51.464;-2.566;2022-09-03T01:58:46;12.03;;;9.10;;
10491;SDS011;5293;51.464;-2.566;2022-09-03T02:01:24;10.03;;;8.70;;
10491;SDS011;5293;51.464;-2.566;2022-09-03T02:03:54;10.27;;;8.50;;
10491;SDS011;5293;51.464;-2.566;2022-09-03T02:06:24;11.77;;;8.40;;
10491;SDS011;5293;51.464;-2.566;2022-09-03T02:08:50;12.77;;;8.77;;
10491;SDS011;5293;51.464;-2.566;2022-09-03T02:11:17;10.20;;;8.70;;
10491;SDS011;5293;51.464;-2.566;2022-09-03T02:13:44;13.93;;;9.53;;
10491;SDS011;5293;51.464;-2.566;2022-09-03T02:16:15;12.77;;;9.37;;
10491;SDS011;5293;51.464;-2.566;2022-09-03T02:18:53;14.33;;;10.03;;
10491;SDS011;5293;51.464;-2.566;2022-09-03T02:21:22;15.00;;;10.00;;
10491;SDS011;5293;51.464;-2.566;2022-09-03T02:23:49;10.47;;;9.37;;
10491;SDS011;5293;51.464;-2.566;2022-09-03T02:26:17;10.83;;;9.10;;
10491;SDS011;5293;51.464;-2.566;2022-09-03T02:28:46;11.57;;;9.97;;
10491;SDS011;5293;51.464;-2.566;2022-09-03T02:31:12;16.27;;;9.47;;
10491;SDS011;5293;51.464;-2.566;2022-09-03T02:33:39;13.13;;;10.37;;
10491;SDS011;5293;51.464;-2.566;2022-09-03T02:36:08;13.40;;;10.67;;
10491;SDS011;5293;51.464;-2.566;2022-09-03T02:38:36;12.07;;;10.07;;
10491;SDS011;5293;51.464;-2.566;2022-09-03T02:41:02;12.00;;;10.20;;
10491;SDS011;5293;51.464;-2.566;2022-09-03T02:46:22;15.13;;;10.40;;
10491;SDS011;5293;51.464;-2.566;2022-09-03T02:48:52;12.17;;;10.53;;
10491;SDS011;5293;51.464;-2.566;2022-09-03T02:51:18;12.37;;;10.07;;
10491;SDS011;5293;51.464;-2.566;2022-09-03T02:53:44;14.00;;;10.97;;
10491;SDS011;5293;51.464;-2.566;2022-09-03T02:56:10;14.13;;;11.20;;
10491;SDS011;5293;51.464;-2.566;2022-09-03T02:58:36;13.57;;;12.17;;
10491;SDS011;5293;51.464;-2.566;2022-09-03T03:01:02;13.90;;;11.90;;
10491;SDS011;5293;51.464;-2.566;2022-09-03T03:03:28;15.67;;;12.20;;
10491;SDS011;5293;51.464;-2.566;2022-09-03T03:05:55;17.17;;;12.57;;
10491;SDS011;5293;51.464;-2.566;2022-09-03T03:08:24;18.23;;;13.57;;
10491;SDS011;5293;51.464;-2.566;2022-09-03T03:10:52;20.17;;;14.20;;
10491;SDS011;5293;51.464;-2.566;2022-09-03T03:13:24;16.53;;;12.87;;
10491;SDS011;5293;51.464;-2.566;2022-09-03T03:15:54;18.10;;;14.23;;
10491;SDS011;5293;51.464;-2.566;2022-09-03T03:18:21;17.00;;;13.77;;
10491;SDS011;5293;51.464;-2.566;2022-09-03T03:20:50;15.80;;;13.83;;
10491;SDS011;5293;51.464;-2.566;2022-09-03T03:23:16;17.70;;;14.93;;
10491;SDS011;5293;51.464;-2.566;2022-09-03T03:25:42;19.43;;;14.53;;
10491;SDS011;5293;51.464;-2.566;2022-09-03T03:28:08;22.00;;;16.63;;
10491;SDS011;5293;51.464;-2.566;2022-09-03T03:30:36;22.87;;;16.77;;
10491;SDS011;5293;51.464;-2.566;2022-09-03T03:33:03;21.23;;;16.77;;
10491;SDS011;5293;51.464;-2.566;2022-09-03T03:35:33;26.83;;;18.03;;
10491;SDS011;5293;51.464;-2.566;2022-09-03T03:38:00;23.20;;;17.70;;
10491;SDS011;5293;51.464;-2.566;2022-09-03T03:40:25;24.10;;;18.07;;
10491;SDS011;5293;51.464;-2.566;2022-09-03T03:42:51;26.60;;;18.87;;
10491;SDS011;5293;51.464;-2.566;2022-09-03T03:45:17;26.67;;;19.13;;
10491;SDS011;5293;51.464;-2.566;2022-09-03T03:47:43;29.10;;;19.90;;
10491;SDS011;5293;51.464;-2.566;2022-09-03T03:50:09;31.70;;;19.97;;
10491;SDS011;5293;51.464;-2.566;2022-09-03T03:52:35;28.03;;;20.37;;
10491;SDS011;5293;51.464;-2.566;2022-09-03T03:55:00;33.13;;;20.80;;
10491;SDS011;5293;51.464;-2.566;2022-09-03T03:57:28;32.70;;;21.87;;
10491;SDS011;5293;51.464;-2.566;2022-09-03T03:59:54;33.10;;;22.67;;
10491;SDS011;5293;51.464;-2.566;2022-09-03T04:02:20;33.60;;;21.90;;
10491;SDS011;5293;51.464;-2.566;2022-09-03T04:04:46;34.47;;;21.83;;
10491;SDS011;5293;51.464;-2.566;2022-09-03T04:07:11;31.73;;;22.03;;
10491;SDS011;5293;51.464;-2.566;2022-09-03T04:09:37;34.40;;;22.47;;
10491;SDS011;5293;51.464;-2.566;2022-09-03T04:12:03;32.57;;;21.70;;
10491;SDS011;5293;51.464;-2.566;2022-09-03T04:14:32;34.00;;;22.20;;
10491;SDS011;5293;51.464;-2.566;2022-09-03T04:16:59;32.87;;;21.70;;
10491;SDS011;5293;51.464;-2.566;2022-09-03T04:19:25;34.27;;;22.17;;
10491;SDS011;5293;51.464;-2.566;2022-09-03T04:21:52;34.63;;;21.37;;
10491;SDS011;5293;51.464;-2.566;2022-09-03T04:24:18;34.77;;;21.80;;
10491;SDS011;5293;51.464;-2.566;2022-09-03T04:26:43;34.37;;;22.20;;
10491;SDS011;5293;51.464;-2.566;2022-09-03T04:29:09;34.37;;;21.97;;
10491;SDS011;5293;51.464;-2.566;2022-09-03T04:31:36;32.53;;;21.70;;
10491;SDS011;5293;51.464;-2.566;2022-09-03T04:34:02;31.60;;;21.77;;
10491;SDS011;5293;51.464;-2.566;2022-09-03T04:36:30;33.67;;;22.27;;
10491;SDS011;5293;51.464;-2.566;2022-09-03T04:38:58;30.67;;;20.80;;
10491;SDS011;5293;51.464;-2.566;2022-09-03T04:41:26;29.50;;;20.80;;
10491;SDS011;5293;51.464;-2.566;2022-09-03T04:43:53;30.43;;;21.50;;
10491;SDS011;5293;51.464;-2.566;2022-09-03T04:46:20;32.77;;;22.20;;
10491;SDS011;5293;51.464;-2.566;2022-09-03T04:48:48;30.67;;;21.23;;
10491;SDS011;5293;51.464;-2.566;2022-09-03T04:51:16;34.80;;;21.43;;
10491;SDS011;5293;51.464;-2.566;2022-09-03T04:53:44;35.03;;;22.70;;
10491;SDS011;5293;51.464;-2.566;2022-09-03T04:56:12;34.23;;;21.67;;
10491;SDS011;5293;51.464;-2.566;2022-09-03T04:58:45;29.47;;;21.63;;
10491;SDS011;5293;51.464;-2.566;2022-09-03T05:01:16;32.70;;;22.00;;
10491;SDS011;5293;51.464;-2.566;2022-09-03T05:03:43;33.63;;;22.17;;
10491;SDS011;5293;51.464;-2.566;2022-09-03T05:06:09;32.83;;;21.33;;
10491;SDS011;5293;51.464;-2.566;2022-09-03T05:08:35;30.57;;;21.47;;
10491;SDS011;5293;51.464;-2.566;2022-09-03T05:11:04;33.83;;;21.83;;
10491;SDS011;5293;51.464;-2.566;2022-09-03T05:13:31;32.07;;;20.60;;
10491;SDS011;5293;51.464;-2.566;2022-09-03T05:15:59;31.43;;;21.03;;
10491;SDS011;5293;51.464;-2.566;2022-09-03T05:18:26;31.27;;;21.07;;
10491;SDS011;5293;51.464;-2.566;2022-09-03T05:20:58;31.83;;;20.70;;
10491;SDS011;5293;51.464;-2.566;2022-09-03T05:23:27;30.43;;;21.10;;
10491;SDS011;5293;51.464;-2.566;2022-09-03T05:25:58;33.57;;;21.97;;
10491;SDS011;5293;51.464;-2.566;2022-09-03T05:28:27;27.70;;;20.90;;
10491;SDS011;5293;51.464;-2.566;2022-09-03T05:30:58;32.17;;;21.43;;
10491;SDS011;5293;51.464;-2.566;2022-09-03T05:33:27;30.50;;;20.43;;
10491;SDS011;5293;51.464;-2.566;2022-09-03T05:35:54;32.30;;;21.03;;
10491;SDS011;5293;51.464;-2.566;2022-09-03T05:38:29;29.07;;;20.90;;
10491;SDS011;5293;51.464;-2.566;2022-09-03T05:41:01;31.87;;;21.07;;
10491;SDS011;5293;51.464;-2.566;2022-09-03T05:43:28;26.97;;;18.57;;
10491;SDS011;5293;51.464;-2.566;2022-09-03T05:46:02;30.50;;;18.63;;
10491;SDS011;5293;51.464;-2.566;2022-09-03T05:48:29;27.53;;;18.17;;
10491;SDS011;5293;51.464;-2.566;2022-09-03T05:51:00;30.07;;;18.33;;
10491;SDS011;5293;51.464;-2.566;2022-09-03T05:53:32;29.27;;;18.57;;
10491;SDS011;5293;51.464;-2.566;2022-09-03T05:55:59;27.10;;;17.77;;
10491;SDS011;5293;51.464;-2.566;2022-09-03T05:58:30;28.50;;;18.30;;
10491;SDS011;5293;51.464;-2.566;2022-09-03T06:00:57;26.77;;;18.07;;
10491;SDS011;5293;51.464;-2.566;2022-09-03T06:03:23;29.63;;;17.80;;
10491;SDS011;5293;51.464;-2.566;2022-09-03T06:05:52;29.03;;;18.53;;
10491;SDS011;5293;51.464;-2.566;2022-09-03T06:08:19;30.50;;;18.50;;
10491;SDS011;5293;51.464;-2.566;2022-09-03T06:10:45;27.30;;;18.37;;
10491;SDS011;5293;51.464;-2.566;2022-09-03T06:13:11;24.60;;;18.13;;
10491;SDS011;5293;51.464;-2.566;2022-09-03T06:15:37;25.23;;;19.43;;
10491;SDS011;5293;51.464;-2.566;2022-09-03T06:18:04;30.37;;;18.63;;
10491;SDS011;5293;51.464;-2.566;2022-09-03T06:20:30;26.93;;;19.23;;
10491;SDS011;5293;51.464;-2.566;2022-09-03T06:22:56;25.63;;;17.77;;
10491;SDS011;5293;51.464;-2.566;2022-09-03T06:25:22;25.17;;;19.00;;
10491;SDS011;5293;51.464;-2.566;2022-09-03T06:27:49;31.57;;;20.03;;
10491;SDS011;5293;51.464;-2.566;2022-09-03T06:30:15;27.47;;;20.03;;
10491;SDS011;5293;51.464;-2.566;2022-09-03T06:32:44;27.67;;;19.87;;
10491;SDS011;5293;51.464;-2.566;2022-09-03T06:35:17;29.53;;;20.83;;
10491;SDS011;5293;51.464;-2.566;2022-09-03T06:37:43;26.43;;;18.33;;
10491;SDS011;5293;51.464;-2.566;2022-09-03T06:40:09;26.13;;;19.27;;
10491;SDS011;5293;51.464;-2.566;2022-09-03T06:42:53;28.90;;;19.47;;
10491;SDS011;5293;51.464;-2.566;2022-09-03T06:45:20;22.23;;;18.23;;
10491;SDS011;5293;51.464;-2.566;2022-09-03T06:47:46;24.10;;;18.03;;
10491;SDS011;5293;51.464;-2.566;2022-09-03T06:50:13;25.57;;;17.80;;
10491;SDS011;5293;51.464;-2.566;2022-09-03T06:52:38;23.70;;;17.73;;
10491;SDS011;5293;51.464;-2.566;2022-09-03T06:55:04;22.47;;;17.30;;
10491;SDS011;5293;51.464;-2.566;2022-09-03T06:57:30;22.47;;;17.20;;
10491;SDS011;5293;51.464;-2.566;2022-09-03T06:59:56;24.37;;;17.33;;
10491;SDS011;5293;51.464;-2.566;2022-09-03T07:02:22;25.20;;;19.57;;
10491;SDS011;5293;51.464;-2.566;2022-09-03T07:04:48;23.43;;;17.80;;
10491;SDS011;5293;51.464;-2.566;2022-09-03T07:07:13;22.40;;;17.37;;
10491;SDS011;5293;51.464;-2.566;2022-09-03T07:09:40;22.60;;;18.53;;
10491;SDS011;5293;51.464;-2.566;2022-09-03T07:12:06;21.83;;;17.53;;
10491;SDS011;5293;51.464;-2.566;2022-09-03T07:14:32;23.53;;;18.57;;
10491;SDS011;5293;51.464;-2.566;2022-09-03T07:16:57;23.20;;;17.97;;
10491;SDS011;5293;51.464;-2.566;2022-09-03T07:19:23;23.03;;;18.20;;
10491;SDS011;5293;51.464;-2.566;2022-09-03T07:21:49;24.30;;;17.40;;
10491;SDS011;5293;51.464;-2.566;2022-09-03T07:24:14;24.40;;;18.33;;
10491;SDS011;5293;51.464;-2.566;2022-09-03T07:26:41;22.37;;;17.27;;
10491;SDS011;5293;51.464;-2.566;2022-09-03T07:29:11;24.90;;;17.57;;
10491;SDS011;5293;51.464;-2.566;2022-09-03T07:31:39;20.27;;;17.10;;
10491;SDS011;5293;51.464;-2.566;2022-09-03T07:34:07;21.00;;;16.47;;
10491;SDS011;5293;51.464;-2.566;2022-09-03T07:36:35;21.43;;;16.97;;
10491;SDS011;5293;51.464;-2.566;2022-09-03T07:39:06;21.20;;;16.93;;
10491;SDS011;5293;51.464;-2.566;2022-09-03T07:41:33;24.93;;;17.27;;
10491;SDS011;5293;51.464;-2.566;2022-09-03T07:43:59;23.07;;;17.27;;
10491;SDS011;5293;51.464;-2.566;2022-09-03T07:46:30;21.47;;;16.83;;
10491;SDS011;5293;51.464;-2.566;2022-09-03T07:48:58;24.50;;;17.20;;
10491;SDS011;5293;51.464;-2.566;2022-09-03T07:51:29;23.07;;;16.90;;
10491;SDS011;5293;51.464;-2.566;2022-09-03T07:53:58;24.40;;;16.77;;
10491;SDS011;5293;51.464;-2.566;2022-09-03T07:56:28;21.17;;;16.83;;
10491;SDS011;5293;51.464;-2.566;2022-09-03T07:58:59;22.97;;;16.53;;
10491;SDS011;5293;51.464;-2.566;2022-09-03T08:01:25;22.03;;;16.17;;
10491;SDS011;5293;51.464;-2.566;2022-09-03T08:03:53;21.97;;;16.73;;
10491;SDS011;5293;51.464;-2.566;2022-09-03T08:06:22;24.17;;;16.17;;
10491;SDS011;5293;51.464;-2.566;2022-09-03T08:08:56;20.83;;;16.43;;
10491;SDS011;5293;51.464;-2.566;2022-09-03T08:11:25;21.63;;;15.23;;
10491;SDS011;5293;51.464;-2.566;2022-09-03T08:13:59;17.57;;;14.87;;
10491;SDS011;5293;51.464;-2.566;2022-09-03T08:16:30;26.20;;;13.83;;
10491;SDS011;5293;51.464;-2.566;2022-09-03T08:18:58;20.40;;;13.90;;
10491;SDS011;5293;51.464;-2.566;2022-09-03T08:21:24;17.63;;;13.33;;
10491;SDS011;5293;51.464;-2.566;2022-09-03T08:23:51;16.23;;;13.33;;
10491;SDS011;5293;51.464;-2.566;2022-09-03T08:26:19;16.50;;;12.40;;
10491;SDS011;5293;51.464;-2.566;2022-09-03T08:28:45;15.90;;;12.53;;
10491;SDS011;5293;51.464;-2.566;2022-09-03T08:33:46;15.60;;;12.50;;
10491;SDS011;5293;51.464;-2.566;2022-09-03T08:36:20;13.47;;;11.03;;
10491;SDS011;5293;51.464;-2.566;2022-09-03T08:38:51;12.07;;;10.23;;
10491;SDS011;5293;51.464;-2.566;2022-09-03T08:41:20;12.27;;;9.77;;
10491;SDS011;5293;51.464;-2.566;2022-09-03T08:49:30;13.40;;;9.90;;
10491;SDS011;5293;51.464;-2.566;2022-09-03T08:54:51;11.97;;;9.80;;
10491;SDS011;5293;51.464;-2.566;2022-09-03T08:57:23;12.57;;;10.37;;
10491;SDS011;5293;51.464;-2.566;2022-09-03T08:59:50;11.83;;;9.73;;
10491;SDS011;5293;51.464;-2.566;2022-09-03T09:02:23;11.10;;;10.00;;
10491;SDS011;5293;51.464;-2.566;2022-09-03T09:05:08;14.67;;;10.93;;
10491;SDS011;5293;51.464;-2.566;2022-09-03T09:10:39;12.40;;;10.70;;
10491;SDS011;5293;51.464;-2.566;2022-09-03T09:16:07;16.00;;;12.07;;
10491;SDS011;5293;51.464;-2.566;2022-09-03T09:18:58;14.30;;;12.20;;
10491;SDS011;5293;51.464;-2.566;2022-09-03T09:21:52;13.80;;;11.77;;
10491;SDS011;5293;51.464;-2.566;2022-09-03T09:24:25;19.63;;;13.93;;
10491;SDS011;5293;51.464;-2.566;2022-09-03T09:26:54;19.97;;;15.07;;
10491;SDS011;5293;51.464;-2.566;2022-09-03T09:29:23;23.23;;;16.80;;
10491;SDS011;5293;51.464;-2.566;2022-09-03T09:31:56;20.20;;;17.13;;
10491;SDS011;5293;51.464;-2.566;2022-09-03T09:34:22;21.90;;;18.03;;
10491;SDS011;5293;51.464;-2.566;2022-09-03T09:36:48;23.20;;;17.57;;
10491;SDS011;5293;51.464;-2.566;2022-09-03T09:39:17;27.20;;;22.00;;
10491;SDS011;5293;51.464;-2.566;2022-09-03T09:41:53;26.23;;;20.37;;
10491;SDS011;5293;51.464;-2.566;2022-09-03T09:44:25;26.40;;;19.53;;
10491;SDS011;5293;51.464;-2.566;2022-09-03T09:47:00;26.73;;;19.80;;
10491;SDS011;5293;51.464;-2.566;2022-09-03T09:52:19;26.20;;;20.27;;
10491;SDS011;5293;51.464;-2.566;2022-09-03T09:54:49;24.87;;;19.43;;
10491;SDS011;5293;51.464;-2.566;2022-09-03T09:57:17;23.97;;;18.67;;
10491;SDS011;5293;51.464;-2.566;2022-09-03T09:59:49;22.27;;;18.80;;
10491;SDS011;5293;51.464;-2.566;2022-09-03T10:02:27;25.77;;;18.83;;
10491;SDS011;5293;51.464;-2.566;2022-09-03T10:05:00;23.93;;;18.23;;
10491;SDS011;5293;51.464;-2.566;2022-09-03T10:07:52;23.03;;;18.53;;
10491;SDS011;5293;51.464;-2.566;2022-09-03T10:10:26;21.40;;;18.20;;
10491;SDS011;5293;51.464;-2.566;2022-09-03T10:13:08;23.87;;;18.00;;
10491;SDS011;5293;51.464;-2.566;2022-09-03T10:16:13;30.07;;;22.50;;
10491;SDS011;5293;51.464;-2.566;2022-09-03T10:24:03;19.97;;;15.17;;
10491;SDS011;5293;51.464;-2.566;2022-09-03T10:26:39;18.83;;;14.00;;
10491;SDS011;5293;51.464;-2.566;2022-09-03T10:29:09;17.57;;;13.83;;
10491;SDS011;5293;51.464;-2.566;2022-09-03T10:36:42;20.30;;;13.50;;
10491;SDS011;5293;51.464;-2.566;2022-09-03T10:53:27;15.37;;;11.73;;
10491;SDS011;5293;51.464;-2.566;2022-09-03T10:56:11;15.90;;;12.63;;
10491;SDS011;5293;51.464;-2.566;2022-09-03T11:02:09;17.83;;;11.83;;
10491;SDS011;5293;51.464;-2.566;2022-09-03T11:07:45;15.93;;;11.47;;
10491;SDS011;5293;51.464;-2.566;2022-09-03T11:10:26;14.03;;;10.47;;
10491;SDS011;5293;51.464;-2.566;2022-09-03T11:18:17;11.13;;;9.77;;
10491;SDS011;5293;51.464;-2.566;2022-09-03T11:20:51;18.50;;;10.87;;
10491;SDS011;5293;51.464;-2.566;2022-09-03T11:23:21;13.57;;;10.17;;
10491;SDS011;5293;51.464;-2.566;2022-09-03T11:25:53;13.63;;;9.67;;
10491;SDS011;5293;51.464;-2.566;2022-09-03T11:28:42;14.37;;;9.50;;
10491;SDS011;5293;51.464;-2.566;2022-09-03T11:36:50;11.77;;;8.73;;
10491;SDS011;5293;51.464;-2.566;2022-09-03T11:39:18;12.13;;;9.33;;
10491;SDS011;5293;51.464;-2.566;2022-09-03T11:41:44;14.43;;;8.83;;
10491;SDS011;5293;51.464;-2.566;2022-09-03T11:44:21;13.60;;;9.13;;
10491;SDS011;5293;51.464;-2.566;2022-09-03T11:46:57;12.07;;;9.17;;
10491;SDS011;5293;51.464;-2.566;2022-09-03T11:49:30;11.57;;;9.37;;
10491;SDS011;5293;51.464;-2.566;2022-09-03T11:52:01;14.67;;;9.20;;
10491;SDS011;5293;51.464;-2.566;2022-09-03T11:54:42;11.90;;;8.37;;
10491;SDS011;5293;51.464;-2.566;2022-09-03T11:57:13;12.07;;;8.87;;
10491;SDS011;5293;51.464;-2.566;2022-09-03T11:59:45;11.63;;;8.67;;
10491;SDS011;5293;51.464;-2.566;2022-09-03T12:13:19;10.13;;;7.40;;
10491;SDS011;5293;51.464;-2.566;2022-09-03T12:18:45;7.43;;;6.50;;
10491;SDS011;5293;51.464;-2.566;2022-09-03T12:21:15;10.53;;;6.60;;
10491;SDS011;5293;51.464;-2.566;2022-09-03T12:23:42;8.07;;;6.67;;
10491;SDS011;5293;51.464;-2.566;2022-09-03T12:26:11;11.43;;;5.87;;
10491;SDS011;5293;51.464;-2.566;2022-09-03T12:28:44;8.63;;;6.33;;
10491;SDS011;5293;51.464;-2.566;2022-09-03T12:31:21;9.60;;;5.87;;
10491;SDS011;5293;51.464;-2.566;2022-09-03T12:34:02;9.73;;;6.23;;
10491;SDS011;5293;51.464;-2.566;2022-09-03T12:36:41;6.10;;;5.23;;
10491;SDS011;5293;51.464;-2.566;2022-09-03T12:41:35;5.80;;;4.73;;
10491;SDS011;5293;51.464;-2.566;2022-09-03T12:44:01;5.27;;;4.57;;
10491;SDS011;5293;51.464;-2.566;2022-09-03T12:46:29;4.33;;;3.93;;
10491;SDS011;5293;51.464;-2.566;2022-09-03T12:48:58;4.80;;;3.83;;
10491;SDS011;5293;51.464;-2.566;2022-09-03T12:51:40;5.80;;;3.77;;
10491;SDS011;5293;51.464;-2.566;2022-09-03T12:54:07;4.30;;;3.70;;
10491;SDS011;5293;51.464;-2.566;2022-09-03T12:56:40;5.53;;;2.93;;
10491;SDS011;5293;51.464;-2.566;2022-09-03T12:59:10;8.10;;;3.20;;
10491;SDS011;5293;51.464;-2.566;2022-09-03T13:01:44;5.77;;;3.20;;
10491;SDS011;5293;51.464;-2.566;2022-09-03T13:04:18;5.50;;;3.07;;
10491;SDS011;5293;51.464;-2.566;2022-09-03T13:09:38;5.27;;;2.97;;
10491;SDS011;5293;51.464;-2.566;2022-09-03T13:12:06;3.67;;;2.90;;
10491;SDS011;5293;51.464;-2.566;2022-09-03T13:14:45;4.63;;;3.00;;
10491;SDS011;5293;51.464;-2.566;2022-09-03T13:17:18;7.30;;;3.50;;
10491;SDS011;5293;51.464;-2.566;2022-09-03T13:30:28;9.37;;;3.73;;
10491;SDS011;5293;51.464;-2.566;2022-09-03T13:33:04;6.73;;;3.90;;
10491;SDS011;5293;51.464;-2.566;2022-09-03T13:43:58;5.67;;;4.40;;
10491;SDS011;5293;51.464;-2.566;2022-09-03T13:46:38;5.90;;;4.43;;
10491;SDS011;5293;51.464;-2.566;2022-09-03T13:52:12;8.77;;;4.37;;
10491;SDS011;5293;51.464;-2.566;2022-09-03T13:54:48;6.80;;;5.10;;
10491;SDS011;5293;51.464;-2.566;2022-09-03T13:57:26;6.37;;;4.57;;
10491;SDS011;5293;51.464;-2.566;2022-09-03T14:00:04;6.53;;;4.80;;
10491;SDS011;5293;51.464;-2.566;2022-09-03T14:16:36;6.13;;;3.93;;
10491;SDS011;5293;51.464;-2.566;2022-09-03T14:19:14;5.23;;;3.73;;
10491;SDS011;5293;51.464;-2.566;2022-09-03T14:22:04;8.00;;;3.43;;
10491;SDS011;5293;51.464;-2.566;2022-09-03T14:24:38;6.43;;;3.33;;
10491;SDS011;5293;51.464;-2.566;2022-09-03T14:27:08;6.17;;;3.43;;
10491;SDS011;5293;51.464;-2.566;2022-09-03T14:29:35;6.13;;;3.10;;
10491;SDS011;5293;51.464;-2.566;2022-09-03T14:42:58;5.10;;;3.63;;
10491;SDS011;5293;51.464;-2.566;2022-09-03T14:48:12;8.03;;;3.53;;
10491;SDS011;5293;51.464;-2.566;2022-09-03T14:51:37;4.50;;;3.47;;
10491;SDS011;5293;51.464;-2.566;2022-09-03T14:57:10;5.00;;;3.80;;
10491;SDS011;5293;51.464;-2.566;2022-09-03T15:11:02;7.30;;;3.03;;
10491;SDS011;5293;51.464;-2.566;2022-09-03T15:13:35;5.33;;;2.70;;
10491;SDS011;5293;51.464;-2.566;2022-09-03T15:41:24;3.57;;;1.83;;
10491;SDS011;5293;51.464;-2.566;2022-09-03T15:43:58;5.43;;;2.30;;
10491;SDS011;5293;51.464;-2.566;2022-09-03T15:46:37;2.87;;;1.63;;
10491;SDS011;5293;51.464;-2.566;2022-09-03T15:52:01;6.20;;;1.67;;
10491;SDS011;5293;51.464;-2.566;2022-09-03T15:55:11;2.53;;;1.40;;
10491;SDS011;5293;51.464;-2.566;2022-09-03T15:57:51;3.13;;;1.63;;
10491;SDS011;5293;51.464;-2.566;2022-09-03T16:00:29;2.30;;;1.50;;
10491;SDS011;5293;51.464;-2.566;2022-09-03T16:03:05;4.57;;;1.80;;
10491;SDS011;5293;51.464;-2.566;2022-09-03T16:05:37;7.53;;;2.10;;
10491;SDS011;5293;51.464;-2.566;2022-09-03T16:11:06;2.47;;;1.47;;
10491;SDS011;5293;51.464;-2.566;2022-09-03T16:19:16;5.43;;;1.60;;
10491;SDS011;5293;51.464;-2.566;2022-09-03T16:22:03;2.10;;;1.23;;
10491;SDS011;5293;51.464;-2.566;2022-09-03T16:24:42;2.90;;;1.30;;
10491;SDS011;5293;51.464;-2.566;2022-09-03T16:30:07;2.37;;;1.50;;
10491;SDS011;5293;51.464;-2.566;2022-09-03T16:32:43;5.03;;;1.57;;
10491;SDS011;5293;51.464;-2.566;2022-09-03T16:40:50;5.97;;;1.80;;
10491;SDS011;5293;51.464;-2.566;2022-09-03T16:43:54;4.07;;;1.57;;
10491;SDS011;5293;51.464;-2.566;2022-09-03T16:47:26;3.87;;;1.60;;
10491;SDS011;5293;51.464;-2.566;2022-09-03T16:53:11;4.77;;;1.60;;
10491;SDS011;5293;51.464;-2.566;2022-09-03T17:03:49;2.43;;;1.50;;
10491;SDS011;5293;51.464;-2.566;2022-09-03T17:06:48;3.17;;;1.57;;
10491;SDS011;5293;51.464;-2.566;2022-09-03T17:17:14;3.43;;;1.90;;
10491;SDS011;5293;51.464;-2.566;2022-09-03T17:20:07;3.27;;;1.53;;
10491;SDS011;5293;51.464;-2.566;2022-09-03T17:25:12;3.37;;;1.90;;
10491;SDS011;5293;51.464;-2.566;2022-09-03T17:36:17;3.53;;;1.77;;
10491;SDS011;5293;51.464;-2.566;2022-09-03T17:41:57;2.43;;;1.60;;
10491;SDS011;5293;51.464;-2.566;2022-09-03T17:47:06;6.17;;;2.50;;
10491;SDS011;5293;51.464;-2.566;2022-09-03T17:49:47;5.73;;;2.00;;
10491;SDS011;5293;51.464;-2.566;2022-09-03T17:54:52;6.90;;;2.73;;
10491;SDS011;5293;51.464;-2.566;2022-09-03T17:57:25;5.83;;;2.07;;
10491;SDS011;5293;51.464;-2.566;2022-09-03T18:02:38;4.33;;;2.60;;
10491;SDS011;5293;51.464;-2.566;2022-09-03T18:05:44;7.77;;;2.30;;
10491;SDS011;5293;51.464;-2.566;2022-09-03T18:08:17;4.13;;;2.00;;
10491;SDS011;5293;51.464;-2.566;2022-09-03T18:22:24;4.57;;;1.83;;
10491;SDS011;5293;51.464;-2.566;2022-09-03T18:25:13;5.70;;;2.40;;
10491;SDS011;5293;51.464;-2.566;2022-09-03T18:28:05;4.10;;;2.07;;
10491;SDS011;5293;51.464;-2.566;2022-09-03T18:30:53;2.73;;;1.90;;
10491;SDS011;5293;51.464;-2.566;2022-09-03T18:33:37;6.37;;;2.33;;
10491;SDS011;5293;51.464;-2.566;2022-09-03T18:36:21;5.03;;;2.43;;
10491;SDS011;5293;51.464;-2.566;2022-09-03T18:39:10;6.00;;;2.33;;
10491;SDS011;5293;51.464;-2.566;2022-09-03T18:42:07;7.63;;;2.20;;
10491;SDS011;5293;51.464;-2.566;2022-09-03T18:48:32;5.23;;;2.37;;
10491;SDS011;5293;51.464;-2.566;2022-09-03T18:55:00;3.80;;;2.47;;
10491;SDS011;5293;51.464;-2.566;2022-09-03T19:04:14;5.97;;;2.17;;
10491;SDS011;5293;51.464;-2.566;2022-09-03T19:07:02;3.37;;;2.23;;
10491;SDS011;5293;51.464;-2.566;2022-09-03T19:13:10;7.27;;;3.03;;
10491;SDS011;5293;51.464;-2.566;2022-09-03T19:16:17;4.10;;;2.67;;
10491;SDS011;5293;51.464;-2.566;2022-09-03T19:19:25;5.17;;;2.70;;
10491;SDS011;5293;51.464;-2.566;2022-09-03T19:22:10;4.33;;;2.53;;
10491;SDS011;5293;51.464;-2.566;2022-09-03T19:25:01;4.87;;;2.40;;
10491;SDS011;5293;51.464;-2.566;2022-09-03T19:33:52;6.47;;;2.93;;
10491;SDS011;5293;51.464;-2.566;2022-09-03T19:55:04;5.73;;;2.53;;
10491;SDS011;5293;51.464;-2.566;2022-09-03T19:57:53;7.43;;;3.40;;
10491;SDS011;5293;51.464;-2.566;2022-09-03T20:00:41;6.43;;;3.40;;
10491;SDS011;5293;51.464;-2.566;2022-09-03T20:03:26;4.60;;;2.93;;
10491;SDS011;5293;51.464;-2.566;2022-09-03T20:06:11;9.33;;;3.60;;
10491;SDS011;5293;51.464;-2.566;2022-09-03T20:09:05;5.93;;;3.53;;
10491;SDS011;5293;51.464;-2.566;2022-09-03T20:11:53;6.83;;;3.27;;
10491;SDS011;5293;51.464;-2.566;2022-09-03T20:14:21;5.80;;;3.83;;
10491;SDS011;5293;51.464;-2.566;2022-09-03T20:22:31;8.73;;;3.20;;
10491;SDS011;5293;51.464;-2.566;2022-09-03T20:30:18;8.67;;;3.53;;
10491;SDS011;5293;51.464;-2.566;2022-09-03T20:35:51;6.50;;;3.27;;
10491;SDS011;5293;51.464;-2.566;2022-09-03T20:38:33;6.17;;;2.87;;
10491;SDS011;5293;51.464;-2.566;2022-09-03T20:41:14;4.40;;;3.53;;
10491;SDS011;5293;51.464;-2.566;2022-09-03T20:52:18;6.40;;;3.33;;
10491;SDS011;5293;51.464;-2.566;2022-09-03T20:55:12;6.03;;;3.00;;
10491;SDS011;5293;51.464;-2.566;2022-09-03T20:57:44;6.07;;;2.83;;
10491;SDS011;5293;51.464;-2.566;2022-09-03T21:00:18;5.60;;;3.17;;
10491;SDS011;5293;51.464;-2.566;2022-09-03T21:03:03;6.63;;;3.37;;
10491;SDS011;5293;51.464;-2.566;2022-09-03T21:14:16;5.67;;;3.07;;
10491;SDS011;5293;51.464;-2.566;2022-09-03T21:17:25;7.47;;;3.53;;
10491;SDS011;5293;51.464;-2.566;2022-09-03T21:22:49;7.97;;;3.30;;
10491;SDS011;5293;51.464;-2.566;2022-09-03T21:28:21;7.60;;;3.40;;
10491;SDS011;5293;51.464;-2.566;2022-09-03T21:30:55;7.23;;;3.50;;
10491;SDS011;5293;51.464;-2.566;2022-09-03T21:33:28;5.97;;;3.37;;
10491;SDS011;5293;51.464;-2.566;2022-09-03T21:36:02;11.13;;;3.20;;